Time;durP1;ratioP1;P1;durP2;ratioP2;P2;SDS_P1;SDS_P2;PMS_P1;PMS_P2;Temp;Humidity;BMP_temperature;BMP_pressure;BME280_temperature;BME280_humidity;BME280_pressure;Samples;Min_cycle;Max_cycle;Signal;HPM_P1;HPM_P2
2022/05/29 00:01:47;;;;;;;5.67;4.13;;;19.80;48.30;;;;;;4983815;28;20651;-42
2022/05/29 00:04:13;;;;;;;6.07;3.70;;;19.80;48.90;;;;;;4984990;28;20217;-43
2022/05/29 00:06:42;;;;;;;4.00;3.70;;;19.70;49.70;;;;;;4980811;28;20213;-44
2022/05/29 00:09:11;;;;;;;3.17;2.80;;;19.70;49.60;;;;;;4981943;28;20214;-43
2022/05/29 00:11:37;;;;;;;4.17;3.20;;;19.70;49.20;;;;;;4986911;28;20441;-42
2022/05/29 00:14:03;;;;;;;6.30;3.60;;;19.70;49.10;;;;;;4996527;28;20441;-44
2022/05/29 00:16:30;;;;;;;3.40;2.90;;;19.70;49.40;;;;;;4987723;28;20446;-44
2022/05/29 00:18:56;;;;;;;3.77;3.47;;;19.70;48.60;;;;;;4985886;28;20476;-44
2022/05/29 00:21:23;;;;;;;4.10;3.33;;;19.70;48.20;;;;;;4981672;28;20957;-44
2022/05/29 00:23:49;;;;;;;9.03;3.40;;;19.70;48.50;;;;;;4984794;28;20496;-42
2022/05/29 00:26:19;;;;;;;4.50;3.33;;;19.70;48.40;;;;;;4987818;28;20442;-45
2022/05/29 00:28:46;;;;;;;7.10;4.10;;;19.70;48.70;;;;;;4985854;28;20441;-44
2022/05/29 00:31:13;;;;;;;5.70;5.20;;;19.70;49.10;;;;;;4987920;28;20525;-42
2022/05/29 00:33:39;;;;;;;3.60;3.33;;;19.60;50.40;;;;;;4987581;28;20453;-47
2022/05/29 00:36:06;;;;;;;5.37;3.57;;;19.50;51.10;;;;;;4980097;28;20458;-43
2022/05/29 00:38:38;;;;;;;8.10;3.60;;;19.50;51.20;;;;;;4982533;28;20457;-42
2022/05/29 00:41:17;;;;;;;4.13;3.70;;;19.50;51.50;;;;;;4981079;28;20499;-43
2022/05/29 00:44:04;;;;;;;3.83;3.40;;;19.40;51.10;;;;;;4986823;28;20489;-42
2022/05/29 00:46:30;;;;;;;3.60;3.30;;;19.40;51.60;;;;;;4987651;28;20453;-43
2022/05/29 00:48:56;;;;;;;6.70;4.27;;;19.30;51.70;;;;;;4990276;28;20453;-43
2022/05/29 00:51:23;;;;;;;4.87;3.30;;;19.40;51.80;;;;;;4984895;28;20452;-44
2022/05/29 00:53:49;;;;;;;4.70;3.90;;;19.40;51.70;;;;;;4977305;28;20203;-43
2022/05/29 00:56:15;;;;;;;4.00;3.20;;;19.40;51.10;;;;;;4987610;28;20473;-42
2022/05/29 00:58:42;;;;;;;4.77;4.03;;;19.40;50.40;;;;;;4989223;28;20445;-45
2022/05/29 01:01:07;;;;;;;4.10;3.73;;;19.50;49.70;;;;;;4984827;28;20233;-44
2022/05/29 01:03:33;;;;;;;5.37;3.50;;;19.40;49.10;;;;;;4987494;28;20920;-42
2022/05/29 01:05:59;;;;;;;3.00;2.80;;;19.40;49.20;;;;;;4987741;28;20198;-43
2022/05/29 01:08:29;;;;;;;6.13;3.47;;;19.40;48.70;;;;;;4990200;28;20292;-45
2022/05/29 01:11:19;;;;;;;4.97;3.40;;;19.40;48.90;;;;;;4983429;28;20811;-43
2022/05/29 01:13:58;;;;;;;3.53;3.23;;;19.30;49.40;;;;;;4986305;28;20557;-43
2022/05/29 01:17:12;;;;;;;5.77;4.07;;;19.30;50.10;;;;;;4986665;28;20460;-45
2022/05/29 01:19:57;;;;;;;4.23;3.90;;;19.40;50.40;;;;;;4986268;28;20446;-42
2022/05/29 01:22:58;;;;;;;4.70;3.97;;;19.30;50.60;;;;;;4985825;28;20501;-44
2022/05/29 01:25:38;;;;;;;6.87;3.90;;;19.30;50.80;;;;;;5004441;28;20536;-43
2022/05/29 01:28:11;;;;;;;4.27;3.70;;;19.30;51.20;;;;;;4988783;28;20468;-43
2022/05/29 01:30:45;;;;;;;4.40;3.70;;;19.30;51.70;;;;;;4980634;28;20457;-44
2022/05/29 01:33:34;;;;;;;7.50;4.43;;;19.20;51.80;;;;;;4980679;28;21932;-42
2022/05/29 01:36:05;;;;;;;4.33;3.30;;;19.20;51.80;;;;;;4986473;28;20445;-44
2022/05/29 01:38:41;;;;;;;4.00;3.60;;;19.20;51.80;;;;;;4987673;28;20452;-42
2022/05/29 01:41:26;;;;;;;4.70;4.20;;;19.20;52.00;;;;;;4989046;28;20434;-43
2022/05/29 01:44:03;;;;;;;5.80;3.80;;;19.30;52.30;;;;;;4983427;28;20493;-42
2022/05/29 01:46:33;;;;;;;4.27;3.67;;;19.20;52.20;;;;;;4988217;28;20847;-42
2022/05/29 01:49:05;;;;;;;5.10;3.97;;;19.30;52.30;;;;;;4989594;28;20536;-43
2022/05/29 01:51:55;;;;;;;4.50;4.00;;;19.20;52.30;;;;;;4987931;28;20461;-42
2022/05/29 01:54:43;;;;;;;5.90;4.20;;;19.20;52.30;;;;;;4987896;28;20481;-43
2022/05/29 01:57:16;;;;;;;4.27;3.80;;;19.20;52.20;;;;;;4990672;28;20457;-43
2022/05/29 01:59:49;;;;;;;4.80;4.37;;;19.20;51.60;;;;;;4988357;28;20445;-42
2022/05/29 02:02:20;;;;;;;5.90;3.80;;;19.20;51.40;;;;;;4988631;28;20587;-43
2022/05/29 02:04:51;;;;;;;4.77;3.40;;;19.10;51.30;;;;;;4990643;28;20477;-44
2022/05/29 02:10:14;;;;;;;4.80;3.60;;;19.00;52.40;;;;;;4984391;28;20523;-42
2022/05/29 02:12:49;;;;;;;4.90;3.80;;;19.00;52.30;;;;;;4988053;28;20938;-42
2022/05/29 02:15:20;;;;;;;5.13;3.37;;;19.00;52.00;;;;;;4985476;28;20524;-43
2022/05/29 02:17:51;;;;;;;4.83;3.30;;;19.00;51.80;;;;;;4987177;28;20446;-43
2022/05/29 02:20:46;;;;;;;5.30;3.70;;;19.00;51.10;;;;;;4989810;28;20449;-44
2022/05/29 02:23:32;;;;;;;3.93;3.30;;;19.00;50.80;;;;;;4989567;28;21096;-42
2022/05/29 02:26:00;;;;;;;4.40;3.17;;;19.00;50.60;;;;;;4989952;28;20480;-43
2022/05/29 02:28:42;;;;;;;3.33;3.03;;;19.00;50.70;;;;;;4989535;28;20441;-43
2022/05/29 02:31:22;;;;;;;3.60;2.67;;;19.00;50.50;;;;;;4986250;28;20450;-43
2022/05/29 02:33:58;;;;;;;3.47;2.40;;;19.00;49.90;;;;;;4987227;28;20449;-44
2022/05/29 02:36:40;;;;;;;2.70;2.20;;;19.00;49.70;;;;;;4987812;28;20464;-43
2022/05/29 02:39:16;;;;;;;4.03;2.20;;;19.00;49.20;;;;;;4984277;28;20452;-43
2022/05/29 02:42:05;;;;;;;3.53;2.10;;;19.00;49.00;;;;;;4987269;28;20481;-45
2022/05/29 02:44:40;;;;;;;3.30;2.00;;;19.00;48.50;;;;;;4987127;28;20457;-43
2022/05/29 02:47:24;;;;;;;3.17;2.47;;;19.00;48.10;;;;;;4987564;28;20453;-42
2022/05/29 02:50:24;;;;;;;3.43;2.20;;;19.00;48.00;;;;;;4989273;28;21016;-44
2022/05/29 02:52:52;;;;;;;2.97;2.77;;;18.90;47.50;;;;;;4987756;28;20454;-44
2022/05/29 02:55:19;;;;;;;3.33;3.00;;;18.50;48.90;;;;;;4984864;28;20560;-43
2022/05/29 02:57:45;;;;;;;3.80;2.93;;;18.50;49.90;;;;;;4990094;28;20470;-43
2022/05/29 03:00:12;;;;;;;4.57;3.30;;;18.60;50.10;;;;;;4990379;28;20442;-42
2022/05/29 03:02:41;;;;;;;3.10;2.90;;;18.60;50.30;;;;;;4989286;28;20496;-43
2022/05/29 03:05:13;;;;;;;4.40;2.80;;;18.60;50.20;;;;;;4989639;28;20500;-43
2022/05/29 03:08:12;;;;;;;3.93;2.53;;;18.50;48.30;;;;;;4988316;28;20461;-44
2022/05/29 03:10:43;;;;;;;3.77;3.17;;;18.40;49.10;;;;;;4986779;28;20446;-43
2022/05/29 03:13:09;;;;;;;3.87;3.10;;;18.40;50.30;;;;;;4989515;28;20446;-43
2022/05/29 03:15:58;;;;;;;4.00;2.70;;;18.30;51.10;;;;;;4989790;28;20448;-42
2022/05/29 03:18:39;;;;;;;3.47;2.60;;;18.30;51.50;;;;;;4989714;28;20256;-43
2022/05/29 03:21:22;;;;;;;3.93;2.60;;;18.20;51.20;;;;;;4989210;28;20472;-43
2022/05/29 03:24:02;;;;;;;5.00;2.70;;;18.20;50.90;;;;;;4984837;28;20555;-43
2022/05/29 03:26:56;;;;;;;3.53;2.70;;;18.10;51.20;;;;;;4987966;28;20873;-44
2022/05/29 03:29:44;;;;;;;5.50;2.50;;;18.10;51.80;;;;;;4988756;28;20445;-43
2022/05/29 03:32:11;;;;;;;3.00;2.70;;;18.00;51.70;;;;;;4981863;28;20450;-43
2022/05/29 03:34:37;;;;;;;3.17;2.87;;;18.00;51.50;;;;;;4982500;28;20454;-43
2022/05/29 03:37:03;;;;;;;3.53;2.80;;;18.00;51.50;;;;;;4980465;28;20450;-42
2022/05/29 03:39:28;;;;;;;3.20;2.70;;;17.90;51.50;;;;;;4982862;28;20199;-43
2022/05/29 03:41:55;;;;;;;4.03;2.80;;;17.90;51.60;;;;;;4975071;28;20969;-46
2022/05/29 03:44:22;;;;;;;3.93;3.27;;;17.90;51.80;;;;;;4987046;28;20221;-43
2022/05/29 03:46:48;;;;;;;5.17;2.43;;;17.90;52.10;;;;;;4982793;28;20499;-42
2022/05/29 03:49:16;;;;;;;3.07;2.20;;;17.90;52.00;;;;;;4986840;28;20454;-44
2022/05/29 03:51:42;;;;;;;5.10;2.60;;;17.80;51.20;;;;;;4980524;28;20456;-42
2022/05/29 03:54:08;;;;;;;6.93;1.87;;;17.80;50.50;;;;;;4980420;28;20533;-42
2022/05/29 03:56:35;;;;;;;2.50;2.27;;;17.80;49.80;;;;;;4980751;28;20937;-44
2022/05/29 03:59:04;;;;;;;6.10;2.33;;;17.80;49.30;;;;;;4982246;28;20460;-42
2022/05/29 04:01:30;;;;;;;3.63;2.10;;;17.70;49.20;;;;;;4984059;28;20445;-43
2022/05/29 04:03:56;;;;;;;3.23;2.10;;;17.80;49.30;;;;;;4984034;28;20489;-44
2022/05/29 04:06:23;;;;;;;5.00;2.23;;;17.80;49.50;;;;;;4983551;28;21079;-42
2022/05/29 04:14:20;;;;;;;2.93;2.30;;;17.50;50.20;;;;;;4982109;28;20468;-43
2022/05/29 04:16:45;;;;;;;7.47;2.33;;;17.60;50.50;;;;;;4985833;28;20446;-42
2022/05/29 04:19:11;;;;;;;3.77;2.20;;;17.60;50.80;;;;;;4983180;28;20442;-42
2022/05/29 04:21:36;;;;;;;3.40;2.23;;;17.60;50.80;;;;;;4981829;28;20202;-43
2022/05/29 04:24:02;;;;;;;3.00;2.23;;;17.60;50.80;;;;;;4983227;28;20225;-42
2022/05/29 04:26:28;;;;;;;2.23;1.50;;;17.70;50.80;;;;;;4983567;28;20262;-42
2022/05/29 04:28:53;;;;;;;2.60;2.03;;;17.70;50.80;;;;;;4978991;28;20269;-42
2022/05/29 04:31:19;;;;;;;2.47;2.27;;;17.70;50.90;;;;;;4979251;28;20716;-43
2022/05/29 04:33:45;;;;;;;2.73;2.20;;;17.70;51.40;;;;;;4981188;28;20199;-42
2022/05/29 04:36:11;;;;;;;2.80;2.50;;;17.70;51.50;;;;;;4979591;28;20232;-42
2022/05/29 04:38:37;;;;;;;2.50;2.10;;;17.70;51.90;;;;;;4976094;28;20536;-43
2022/05/29 04:41:08;;;;;;;3.20;2.13;;;17.60;52.20;;;;;;4979215;28;20468;-42
2022/05/29 04:43:33;;;;;;;5.87;2.50;;;17.60;52.90;;;;;;4980841;28;20227;-42
2022/05/29 04:45:59;;;;;;;2.17;1.97;;;17.50;53.90;;;;;;4982410;28;20809;-42
2022/05/29 04:48:25;;;;;;;2.40;1.80;;;17.40;54.00;;;;;;4987131;28;20197;-42
2022/05/29 04:50:58;;;;;;;4.83;2.30;;;17.40;53.90;;;;;;4981506;28;20206;-42
2022/05/29 04:53:24;;;;;;;4.00;2.80;;;17.50;53.90;;;;;;4986051;28;20201;-41
2022/05/29 04:55:52;;;;;;;3.53;2.57;;;17.40;54.30;;;;;;4978368;28;20572;-42
2022/05/29 04:58:18;;;;;;;7.23;2.33;;;17.40;54.50;;;;;;4980942;28;20449;-45
2022/05/29 05:00:45;;;;;;;9.37;2.47;;;17.40;54.70;;;;;;4981993;28;20512;-42
2022/05/29 05:03:10;;;;;;;3.53;2.33;;;17.40;54.80;;;;;;4983499;28;20234;-42
2022/05/29 05:05:36;;;;;;;5.13;2.47;;;17.30;54.60;;;;;;4983004;28;20442;-42
2022/05/29 05:08:03;;;;;;;3.27;2.33;;;17.30;54.60;;;;;;4997926;28;20202;-42
2022/05/29 05:10:28;;;;;;;2.43;2.23;;;17.20;54.60;;;;;;4982092;28;20545;-42
2022/05/29 05:12:54;;;;;;;2.40;2.20;;;17.20;55.10;;;;;;4982637;28;20480;-41
2022/05/29 05:15:20;;;;;;;3.77;2.57;;;17.20;56.30;;;;;;4986527;28;20203;-42
2022/05/29 05:17:46;;;;;;;2.90;2.70;;;17.30;56.80;;;;;;4987334;28;20233;-42
2022/05/29 05:20:12;;;;;;;2.73;2.53;;;17.40;56.60;;;;;;4986896;28;20941;-42
2022/05/29 05:22:38;;;;;;;3.20;2.83;;;17.40;56.10;;;;;;4983783;28;20257;-41
2022/05/29 05:25:04;;;;;;;3.80;2.83;;;17.30;56.10;;;;;;4988957;28;20437;-41
2022/05/29 05:27:29;;;;;;;4.73;2.70;;;17.20;55.80;;;;;;4986723;28;20257;-42
2022/05/29 05:29:55;;;;;;;2.80;2.33;;;17.30;55.30;;;;;;4981590;28;20450;-42
2022/05/29 05:32:21;;;;;;;2.60;2.30;;;17.40;56.70;;;;;;4980668;28;20660;-41
2022/05/29 05:34:46;;;;;;;6.43;2.50;;;17.70;55.30;;;;;;4988008;28;20201;-41
2022/05/29 05:37:13;;;;;;;3.20;1.97;;;18.00;54.10;;;;;;4979903;28;20195;-42
2022/05/29 05:39:39;;;;;;;3.80;1.93;;;18.30;53.20;;;;;;4997101;28;20226;-42
2022/05/29 05:42:06;;;;;;;2.50;2.00;;;18.60;53.10;;;;;;4982028;28;20557;-43
2022/05/29 05:44:32;;;;;;;4.93;2.33;;;18.80;52.80;;;;;;4986303;28;20454;-42
2022/05/29 05:46:57;;;;;;;7.73;2.13;;;18.90;52.80;;;;;;4982059;28;20441;-43
2022/05/29 05:49:24;;;;;;;2.10;1.90;;;19.10;52.90;;;;;;4983986;28;20195;-42
2022/05/29 05:51:50;;;;;;;2.10;1.90;;;19.20;52.60;;;;;;4981726;28;20285;-42
2022/05/29 05:54:17;;;;;;;5.23;2.27;;;19.30;52.10;;;;;;4984632;28;20456;-42
2022/05/29 05:56:44;;;;;;;5.63;3.00;;;19.40;51.60;;;;;;4985452;28;20445;-42
2022/05/29 05:59:10;;;;;;;3.87;2.60;;;19.50;51.40;;;;;;4990697;28;20449;-42
2022/05/29 06:01:37;;;;;;;2.37;2.00;;;19.60;51.50;;;;;;4985112;28;20457;-42
2022/05/29 06:04:03;;;;;;;3.03;2.07;;;19.70;51.40;;;;;;4983324;28;20869;-42
2022/05/29 06:06:29;;;;;;;2.97;2.03;;;19.70;51.10;;;;;;4984647;28;20446;-42
2022/05/29 06:08:56;;;;;;;3.50;2.33;;;19.80;50.70;;;;;;4982539;28;20601;-44
2022/05/29 06:11:21;;;;;;;3.87;2.47;;;19.80;50.20;;;;;;4987453;28;20202;-43
2022/05/29 06:13:47;;;;;;;4.80;1.90;;;19.80;49.90;;;;;;4992348;28;20471;-45
2022/05/29 06:16:13;;;;;;;3.83;1.93;;;19.80;50.10;;;;;;4988835;28;20193;-43
2022/05/29 06:18:39;;;;;;;2.60;1.80;;;19.90;50.50;;;;;;4987934;28;20903;-44
2022/05/29 06:21:05;;;;;;;5.13;2.33;;;19.90;50.60;;;;;;4991592;28;20477;-45
2022/05/29 06:23:32;;;;;;;3.57;2.47;;;19.90;50.80;;;;;;4981287;28;20218;-42
2022/05/29 06:26:01;;;;;;;2.43;2.23;;;19.90;50.90;;;;;;4990357;28;20268;-43
2022/05/29 06:28:27;;;;;;;2.40;2.20;;;19.80;50.90;;;;;;4988101;28;20500;-43
2022/05/29 06:30:53;;;;;;;3.00;2.80;;;19.60;50.80;;;;;;4981629;28;20449;-44
2022/05/29 06:33:18;;;;;;;7.93;2.83;;;19.50;51.30;;;;;;4988730;28;20206;-43
2022/05/29 06:35:44;;;;;;;3.03;2.83;;;19.30;52.40;;;;;;4985646;28;20226;-43
2022/05/29 06:38:09;;;;;;;2.43;2.10;;;19.20;52.70;;;;;;4991026;28;20229;-42
2022/05/29 06:40:36;;;;;;;6.43;2.70;;;19.10;52.80;;;;;;5003675;28;20245;-43
2022/05/29 06:43:02;;;;;;;2.60;1.90;;;19.00;52.80;;;;;;4978805;28;20311;-44
2022/05/29 06:45:27;;;;;;;4.33;2.50;;;19.00;52.80;;;;;;4972357;28;20525;-42
2022/05/29 06:47:53;;;;;;;3.77;2.20;;;18.80;52.10;;;;;;4972661;28;20195;-43
2022/05/29 06:50:19;;;;;;;10.00;2.57;;;18.80;52.40;;;;;;4972723;28;20935;-43
2022/05/29 06:52:44;;;;;;;3.53;2.50;;;18.80;52.90;;;;;;4972863;28;20246;-43
2022/05/29 06:55:10;;;;;;;3.17;2.10;;;18.80;53.10;;;;;;4990155;28;20234;-43
2022/05/29 06:57:43;;;;;;;4.90;2.10;;;18.70;53.40;;;;;;4989600;28;20195;-44
2022/05/29 07:08:39;;;;;;;2.60;2.10;;;18.80;52.20;;;;;;4991641;28;20437;-43
2022/05/29 07:11:15;;;;;;;3.80;2.07;;;18.70;51.60;;;;;;4991509;28;20422;-45
2022/05/29 07:13:42;;;;;;;2.40;2.17;;;18.70;51.80;;;;;;4991913;28;20429;-42
2022/05/29 07:16:07;;;;;;;2.67;2.00;;;18.70;52.20;;;;;;4991232;28;20426;-45
2022/05/29 07:18:33;;;;;;;4.40;1.77;;;18.70;52.10;;;;;;4991315;28;20430;-44
2022/05/29 07:21:00;;;;;;;3.80;1.90;;;18.80;52.10;;;;;;5006354;28;20198;-43
2022/05/29 07:23:26;;;;;;;3.53;1.97;;;18.80;52.00;;;;;;4991314;28;20284;-44
2022/05/29 07:25:52;;;;;;;4.33;3.17;;;18.80;51.80;;;;;;4989972;28;20422;-42
2022/05/29 07:28:17;;;;;;;5.20;2.00;;;18.80;51.80;;;;;;4990199;28;20190;-45
2022/05/29 07:30:43;;;;;;;5.97;2.10;;;18.90;52.00;;;;;;4971683;28;20226;-43
2022/05/29 07:33:09;;;;;;;4.53;2.10;;;18.90;52.60;;;;;;4972214;28;20208;-43
2022/05/29 07:35:35;;;;;;;2.83;2.10;;;19.10;52.40;;;;;;4971365;28;20961;-43
2022/05/29 07:38:01;;;;;;;3.63;2.23;;;19.20;52.10;;;;;;4971158;28;20192;-43
2022/05/29 07:40:27;;;;;;;6.00;2.30;;;19.20;52.40;;;;;;4971353;28;20797;-44
2022/05/29 07:45:37;;;;;;;2.17;1.97;;;19.20;52.10;;;;;;4971257;28;20198;-43
2022/05/29 07:48:03;;;;;;;3.20;2.00;;;19.30;51.40;;;;;;4971378;28;20789;-44
2022/05/29 07:50:28;;;;;;;2.67;1.80;;;19.30;50.10;;;;;;4970709;28;20195;-47
2022/05/29 07:52:54;;;;;;;3.30;2.00;;;19.40;49.60;;;;;;4971111;28;20199;-43
2022/05/29 07:55:20;;;;;;;2.87;2.40;;;19.50;49.80;;;;;;4989800;28;20241;-44
2022/05/29 07:57:47;;;;;;;3.20;2.17;;;19.60;49.90;;;;;;4990760;28;20677;-42
2022/05/29 08:00:14;;;;;;;2.47;1.80;;;19.70;49.70;;;;;;4991245;28;20826;-43
2022/05/29 08:02:40;;;;;;;2.70;1.70;;;19.80;49.70;;;;;;4990405;28;20489;-43
2022/05/29 08:05:08;;;;;;;4.70;2.60;;;19.70;48.40;;;;;;4991223;28;20872;-44
2022/05/29 08:07:34;;;;;;;6.03;2.00;;;19.80;47.90;;;;;;4990088;28;20426;-47
2022/05/29 08:09:59;;;;;;;4.53;1.80;;;19.80;48.40;;;;;;4991043;28;20425;-43
2022/05/29 08:12:25;;;;;;;2.03;1.73;;;19.90;48.20;;;;;;4990397;28;20197;-44
2022/05/29 08:14:51;;;;;;;4.37;2.07;;;20.00;47.40;;;;;;4990960;28;20187;-44
2022/05/29 08:17:16;;;;;;;3.90;1.80;;;20.00;47.50;;;;;;4989756;28;20280;-43
2022/05/29 08:19:42;;;;;;;3.07;1.70;;;20.10;47.60;;;;;;4989929;28;20555;-43
2022/05/29 08:22:08;;;;;;;2.43;1.80;;;20.10;47.90;;;;;;4990327;28;20690;-43
2022/05/29 08:33:03;;;;;;;3.03;2.10;;;20.30;46.30;;;;;;4991113;28;20934;-43
2022/05/29 08:35:29;;;;;;;2.77;1.80;;;20.50;46.10;;;;;;4990286;28;20458;-47
2022/05/29 08:37:55;;;;;;;4.17;1.93;;;20.60;45.60;;;;;;4990309;28;20468;-43
2022/05/29 08:40:21;;;;;;;4.53;2.07;;;20.60;44.50;;;;;;4990152;28;20435;-45
2022/05/29 08:42:47;;;;;;;3.73;2.03;;;20.80;44.90;;;;;;4990814;28;20266;-46
2022/05/29 08:45:14;;;;;;;4.83;2.00;;;20.80;44.20;;;;;;5004098;28;20293;-44
2022/05/29 08:47:41;;;;;;;6.53;2.33;;;20.90;44.50;;;;;;4989697;28;20191;-47
2022/05/29 08:50:10;;;;;;;3.07;2.60;;;20.90;44.10;;;;;;4993595;28;20488;-44
2022/05/29 08:52:39;;;;;;;3.33;1.60;;;20.90;43.50;;;;;;4993902;28;20434;-44
2022/05/29 08:55:26;;;;;;;4.40;2.63;;;21.10;43.90;;;;;;4977300;28;20490;-44
2022/05/29 08:58:19;;;;;;;5.50;1.70;;;21.40;42.80;;;;;;4990692;28;20937;-47
2022/05/29 09:00:59;;;;;;;5.80;2.17;;;21.50;43.40;;;;;;4993926;28;20430;-43
2022/05/29 09:03:46;;;;;;;2.40;2.00;;;21.70;43.90;;;;;;4994205;28;20485;-43
2022/05/29 09:06:22;;;;;;;4.20;1.70;;;21.70;44.40;;;;;;4993626;28;20847;-44
2022/05/29 09:08:58;;;;;;;4.67;3.13;;;21.50;43.40;;;;;;4993922;28;21174;-43
2022/05/29 09:11:29;;;;;;;4.50;1.97;;;21.40;43.20;;;;;;4991904;28;20929;-44
2022/05/29 09:14:11;;;;;;;4.00;2.57;;;21.40;43.30;;;;;;4993903;28;20974;-45
2022/05/29 09:16:43;;;;;;;6.60;2.40;;;21.30;42.50;;;;;;4993774;28;21813;-43
2022/05/29 09:19:35;;;;;;;2.57;1.70;;;21.20;43.10;;;;;;4993666;28;20453;-43
2022/05/29 09:22:10;;;;;;;2.00;1.80;;;20.80;43.20;;;;;;4993240;28;20430;-43
2022/05/29 09:24:59;;;;;;;4.47;1.87;;;20.70;43.60;;;;;;4993813;28;20461;-43
2022/05/29 09:27:24;;;;;;;8.10;2.50;;;20.70;44.00;;;;;;4992954;28;20425;-43
2022/05/29 09:29:50;;;;;;;4.50;1.93;;;20.50;44.00;;;;;;4993696;28;20451;-44
2022/05/29 09:32:22;;;;;;;5.00;2.13;;;20.40;44.20;;;;;;4986514;28;20283;-42
2022/05/29 09:34:59;;;;;;;4.80;2.53;;;20.30;44.10;;;;;;4974291;28;20851;-44
2022/05/29 09:38:18;;;;;;;6.50;2.63;;;20.00;44.50;;;;;;4973332;28;20446;-42
2022/05/29 09:40:57;;;;;;;2.00;1.80;;;19.40;45.20;;;;;;4980296;28;20441;-43
2022/05/29 09:43:26;;;;;;;3.70;1.53;;;19.20;45.50;;;;;;4990798;28;20966;-43
2022/05/29 09:45:51;;;;;;;4.67;1.50;;;19.10;44.90;;;;;;4992151;28;20792;-43
2022/05/29 09:51:31;;;;;;;3.17;1.70;;;19.00;47.50;;;;;;4993076;28;20205;-43
2022/05/29 09:54:03;;;;;;;7.20;2.03;;;18.70;49.40;;;;;;4985563;28;20437;-44
2022/05/29 09:56:33;;;;;;;2.20;1.50;;;18.90;50.20;;;;;;4978617;28;20426;-43
2022/05/29 09:59:35;;;;;;;2.80;1.60;;;18.90;50.60;;;;;;4993048;28;21009;-43
2022/05/29 10:02:03;;;;;;;3.00;2.07;;;18.80;51.10;;;;;;4990981;28;20453;-44
2022/05/29 10:04:37;;;;;;;1.70;1.60;;;18.90;51.00;;;;;;4993072;28;20568;-47
2022/05/29 10:07:17;;;;;;;1.40;1.27;;;18.80;50.70;;;;;;4990821;28;20452;-44
2022/05/29 10:09:57;;;;;;;1.93;1.30;;;18.70;51.50;;;;;;4992971;28;20847;-43
2022/05/29 10:12:40;;;;;;;2.23;1.50;;;18.50;51.30;;;;;;4992125;28;20426;-43
2022/05/29 10:15:13;;;;;;;3.67;1.50;;;18.30;51.40;;;;;;4992950;28;20430;-43
2022/05/29 10:17:40;;;;;;;4.17;1.77;;;18.00;52.30;;;;;;4991861;28;20801;-43
2022/05/29 10:20:26;;;;;;;3.83;2.13;;;17.80;53.20;;;;;;4992573;28;20472;-43
2022/05/29 10:22:55;;;;;;;2.13;1.77;;;17.70;53.60;;;;;;4992783;28;20492;-44
2022/05/29 10:25:24;;;;;;;5.80;1.70;;;17.30;52.80;;;;;;4992431;28;20460;-42
2022/05/29 10:27:52;;;;;;;1.70;1.30;;;17.10;52.60;;;;;;4992321;28;20432;-43
2022/05/29 10:30:46;;;;;;;2.80;1.30;;;16.80;51.00;;;;;;4992244;28;20426;-42
2022/05/29 10:33:22;;;;;;;1.73;1.20;;;17.00;51.90;;;;;;4990836;28;20509;-45
2022/05/29 10:35:49;;;;;;;3.50;1.60;;;17.40;51.70;;;;;;4992108;28;20481;-43
2022/05/29 10:38:22;;;;;;;4.73;1.87;;;17.80;52.20;;;;;;4992187;28;20441;-43
2022/05/29 10:40:50;;;;;;;2.93;2.20;;;17.90;52.60;;;;;;4991806;28;20964;-42
2022/05/29 10:43:41;;;;;;;4.80;2.00;;;18.00;52.30;;;;;;4992405;28;20825;-42
2022/05/29 10:46:40;;;;;;;3.53;1.90;;;18.20;52.20;;;;;;4992218;28;20457;-42
2022/05/29 10:49:30;;;;;;;3.13;1.53;;;18.20;52.20;;;;;;4992401;28;20441;-43
2022/05/29 10:52:06;;;;;;;3.17;1.83;;;18.10;50.80;;;;;;4992173;28;20499;-42
2022/05/29 10:54:46;;;;;;;1.90;1.50;;;17.90;51.80;;;;;;4979608;28;20470;-42
2022/05/29 10:57:57;;;;;;;2.27;1.50;;;17.60;52.80;;;;;;4982636;28;20905;-43
2022/05/29 11:00:23;;;;;;;3.30;1.93;;;16.50;53.00;;;;;;4985671;28;20529;-43
2022/05/29 11:03:18;;;;;;;3.73;2.10;;;16.00;56.30;;;;;;4991783;28;20560;-43
2022/05/29 11:06:12;;;;;;;4.03;2.43;;;16.10;57.60;;;;;;4991310;28;20209;-42
2022/05/29 11:09:02;;;;;;;6.03;2.13;;;16.20;58.20;;;;;;4991412;28;20521;-44
2022/05/29 11:11:57;;;;;;;3.23;2.43;;;15.50;60.20;;;;;;4990528;28;20434;-43
2022/05/29 11:14:39;;;;;;;2.90;2.23;;;15.40;61.50;;;;;;4991922;28;20526;-43
2022/05/29 11:17:46;;;;;;;3.43;1.97;;;15.60;62.00;;;;;;4990848;28;20941;-44
2022/05/29 11:20:46;;;;;;;4.83;1.93;;;15.70;61.80;;;;;;4991770;28;20437;-43
2022/05/29 11:23:47;;;;;;;2.07;1.53;;;16.00;60.40;;;;;;4990117;28;20489;-42
2022/05/29 11:26:23;;;;;;;2.90;1.73;;;16.10;59.20;;;;;;4989638;28;20449;-43
2022/05/29 11:29:13;;;;;;;2.80;1.93;;;15.90;59.30;;;;;;4991225;28;20444;-44
2022/05/29 11:31:48;;;;;;;2.50;2.20;;;15.90;59.70;;;;;;4991040;28;20807;-43
2022/05/29 11:34:52;;;;;;;4.83;1.93;;;16.10;59.40;;;;;;4991703;28;20772;-42
2022/05/29 11:37:39;;;;;;;2.37;2.00;;;16.30;58.40;;;;;;4990827;28;20441;-42
2022/05/29 11:40:19;;;;;;;4.90;3.23;;;16.50;58.30;;;;;;4991067;28;20437;-44
2022/05/29 11:43:01;;;;;;;3.03;2.73;;;15.90;58.80;;;;;;4991246;28;21062;-43
2022/05/29 11:51:28;;;;;;;4.23;2.87;;;16.40;58.90;;;;;;4990719;28;20488;-43
2022/05/29 11:54:05;;;;;;;4.30;2.20;;;16.60;58.90;;;;;;4982804;28;20426;-43
2022/05/29 11:56:52;;;;;;;2.73;2.40;;;16.60;58.50;;;;;;4976396;28;20456;-43
2022/05/29 11:59:43;;;;;;;3.57;2.00;;;16.80;58.60;;;;;;4991184;28;20430;-42
2022/05/29 12:02:38;;;;;;;2.60;2.00;;;16.90;58.50;;;;;;4990307;28;20472;-43
2022/05/29 12:05:23;;;;;;;5.10;2.03;;;16.50;59.00;;;;;;4991288;28;20441;-42
2022/05/29 12:07:53;;;;;;;3.20;2.27;;;16.20;59.20;;;;;;4990855;28;20470;-43
2022/05/29 12:10:24;;;;;;;2.37;2.17;;;15.40;60.60;;;;;;4990633;28;20434;-44
2022/05/29 12:13:03;;;;;;;2.93;2.43;;;15.40;64.30;;;;;;4990981;28;20445;-44
2022/05/29 12:15:30;;;;;;;3.40;2.37;;;15.60;65.60;;;;;;4990663;28;20430;-43
2022/05/29 12:18:03;;;;;;;3.90;2.40;;;15.70;66.40;;;;;;4990645;28;20454;-42
2022/05/29 12:20:41;;;;;;;6.30;2.67;;;15.50;68.30;;;;;;4989035;28;21044;-43
2022/05/29 12:23:25;;;;;;;3.00;2.73;;;15.40;72.90;;;;;;4992450;28;20477;-42
2022/05/29 12:26:08;;;;;;;2.53;2.33;;;15.40;70.20;;;;;;4994558;28;20595;-42
2022/05/29 12:28:45;;;;;;;3.00;1.97;;;15.60;71.90;;;;;;4994704;28;20860;-42
2022/05/29 12:31:43;;;;;;;3.60;2.50;;;15.30;66.90;;;;;;4994553;28;20480;-42
2022/05/29 12:34:21;;;;;;;2.00;1.50;;;15.50;68.20;;;;;;4994982;28;20556;-43
2022/05/29 12:36:52;;;;;;;2.57;1.87;;;15.20;62.50;;;;;;4994140;28;20434;-43
2022/05/29 12:39:38;;;;;;;3.27;1.70;;;15.20;65.70;;;;;;4994793;28;20426;-44
2022/05/29 12:42:27;;;;;;;2.40;1.93;;;15.50;66.30;;;;;;4994312;28;20434;-44
2022/05/29 12:45:30;;;;;;;2.17;1.97;;;16.10;68.30;;;;;;4994699;28;20537;-43
2022/05/29 12:48:17;;;;;;;4.23;2.00;;;16.50;67.70;;;;;;4992834;28;20477;-43
2022/05/29 12:50:52;;;;;;;2.70;1.40;;;16.80;67.20;;;;;;4994127;28;20449;-43
2022/05/29 12:53:26;;;;;;;3.27;1.47;;;17.40;60.20;;;;;;4992572;28;20455;-43
2022/05/29 12:56:10;;;;;;;1.83;1.50;;;17.80;56.40;;;;;;4974535;28;21051;-43
2022/05/29 12:59:17;;;;;;;4.33;1.67;;;18.20;56.80;;;;;;4994063;28;20517;-43
2022/05/29 13:01:42;;;;;;;4.33;1.40;;;18.60;56.70;;;;;;4993902;28;20967;-43
2022/05/29 13:04:11;;;;;;;1.67;1.47;;;19.30;55.60;;;;;;4994181;28;20558;-44
2022/05/29 13:07:01;;;;;;;1.60;1.50;;;19.40;54.60;;;;;;4993526;28;20538;-43
2022/05/29 13:09:39;;;;;;;3.70;1.57;;;19.70;53.10;;;;;;4994153;28;20433;-43
2022/05/29 13:12:12;;;;;;;3.80;1.70;;;19.90;51.50;;;;;;4993834;28;20548;-44
2022/05/29 13:14:44;;;;;;;1.80;1.23;;;19.80;51.20;;;;;;4992731;28;20426;-43
2022/05/29 13:17:19;;;;;;;2.80;1.60;;;19.90;49.80;;;;;;4993215;28;20434;-43
2022/05/29 13:20:08;;;;;;;2.07;1.60;;;20.20;52.00;;;;;;4993919;28;20422;-43
2022/05/29 13:22:51;;;;;;;4.00;1.53;;;20.60;49.70;;;;;;4993498;28;20442;-45
2022/05/29 13:25:24;;;;;;;3.60;1.43;;;20.60;46.20;;;;;;4994003;28;20450;-43
2022/05/29 13:27:51;;;;;;;1.73;1.47;;;20.30;47.00;;;;;;4993265;28;20509;-44
2022/05/29 13:30:39;;;;;;;2.43;1.60;;;20.50;48.70;;;;;;4993782;28;20456;-43
2022/05/29 13:33:27;;;;;;;2.57;1.70;;;21.00;47.50;;;;;;4993775;28;20819;-43
2022/05/29 13:35:53;;;;;;;1.50;1.30;;;21.30;47.30;;;;;;4992787;28;20430;-43
2022/05/29 13:38:46;;;;;;;1.40;1.30;;;21.50;42.50;;;;;;4993211;28;20914;-43
2022/05/29 13:41:52;;;;;;;1.77;1.30;;;21.90;44.30;;;;;;4991970;28;20529;-43
2022/05/29 13:44:44;;;;;;;2.60;1.43;;;21.90;41.90;;;;;;4993895;28;20485;-43
2022/05/29 13:47:18;;;;;;;4.53;1.57;;;21.60;42.90;;;;;;4991983;28;20877;-44
2022/05/29 13:49:47;;;;;;;3.40;1.53;;;21.60;43.70;;;;;;4993634;28;20912;-43
2022/05/29 13:52:18;;;;;;;1.50;1.40;;;21.90;43.60;;;;;;5008302;28;20445;-43
2022/05/29 13:54:44;;;;;;;1.17;1.00;;;22.20;44.10;;;;;;4979707;28;20482;-43
2022/05/29 14:06:19;;;;;;;2.80;1.43;;;21.30;43.50;;;;;;4973528;28;20434;-43
2022/05/29 14:09:11;;;;;;;2.10;1.20;;;20.90;42.60;;;;;;4972214;28;20894;-43